Time;durP1;ratioP1;P1;durP2;ratioP2;P2;SDS_P1;SDS_P2;PMS_P1;PMS_P2;Temp;Humidity;BMP_temperature;BMP_pressure;BME280_temperature;BME280_humidity;BME280_pressure;Samples;Min_cycle;Max_cycle;Signal;HPM_P1;HPM_P2
2022/05/29 00:00:21;;;;;;;4.95;2.90;;;;;;;;;;2077420;28;20488;-76
2022/05/29 00:01:40;;;;;;;4.90;2.80;;;;;;;;;;2076160;28;20048;-77
2022/05/29 00:02:59;;;;;;;2.70;2.50;;;;;;;;;;2076050;28;20111;-76
2022/05/29 00:04:19;;;;;;;2.50;2.30;;;;;;;;;;2076817;28;20026;-77
2022/05/29 00:05:38;;;;;;;2.97;2.67;;;;;;;;;;2082131;28;20034;-77
2022/05/29 00:06:58;;;;;;;4.82;2.38;;;;;;;;;;2078153;28;20025;-77
2022/05/29 00:08:27;;;;;;;4.20;2.83;;;;;;;;;;2076791;28;20034;-77
2022/05/29 00:09:47;;;;;;;3.08;2.80;;;;;;;;;;2077307;28;20034;-77
2022/05/29 00:11:07;;;;;;;4.55;2.83;;;;;;;;;;2076546;28;20043;-76
2022/05/29 00:12:26;;;;;;;3.03;2.75;;;;;;;;;;2076385;28;20069;-77
2022/05/29 00:13:45;;;;;;;2.58;2.38;;;;;;;;;;2076592;28;20475;-77
2022/05/29 00:15:04;;;;;;;2.42;2.33;;;;;;;;;;2076441;28;20030;-77
2022/05/29 00:16:23;;;;;;;3.75;2.58;;;;;;;;;;2083473;28;20033;-76
2022/05/29 00:17:43;;;;;;;2.60;2.40;;;;;;;;;;2078941;28;20030;-77
2022/05/29 00:19:02;;;;;;;6.63;3.13;;;;;;;;;;2075490;28;20055;-76
2022/05/29 00:20:20;;;;;;;2.65;2.45;;;;;;;;;;2076432;28;20030;-76
2022/05/29 00:21:39;;;;;;;2.80;2.60;;;;;;;;;;2076155;28;20051;-77
2022/05/29 00:22:58;;;;;;;3.75;2.72;;;;;;;;;;2078770;28;20080;-77
2022/05/29 00:24:18;;;;;;;3.10;2.80;;;;;;;;;;2074826;28;20018;-76
2022/05/29 00:25:36;;;;;;;4.28;2.85;;;;;;;;;;2075503;28;20025;-76
2022/05/29 00:26:55;;;;;;;2.65;2.45;;;;;;;;;;2083606;28;20038;-78
2022/05/29 00:28:14;;;;;;;2.78;2.58;;;;;;;;;;2080282;28;20034;-75
2022/05/29 00:29:35;;;;;;;3.22;2.80;;;;;;;;;;2076560;28;20029;-77
2022/05/29 00:30:54;;;;;;;3.15;2.92;;;;;;;;;;2075977;28;20026;-77
2022/05/29 00:32:13;;;;;;;2.97;2.58;;;;;;;;;;2076804;28;20037;-76
2022/05/29 00:33:32;;;;;;;2.83;2.60;;;;;;;;;;2075061;28;20116;-78
2022/05/29 00:34:51;;;;;;;2.83;2.25;;;;;;;;;;2082783;28;20498;-76
2022/05/29 00:36:13;;;;;;;3.40;2.60;;;;;;;;;;2079547;28;20050;-77
2022/05/29 00:37:37;;;;;;;4.70;2.65;;;;;;;;;;2077575;28;20022;-76
2022/05/29 00:38:56;;;;;;;3.38;2.50;;;;;;;;;;2081093;28;20033;-77
2022/05/29 00:40:27;;;;;;;2.78;2.55;;;;;;;;;;2076032;28;20025;-76
2022/05/29 00:41:46;;;;;;;2.78;2.58;;;;;;;;;;2076352;28;20033;-76
2022/05/29 00:43:04;;;;;;;2.67;2.40;;;;;;;;;;2079858;28;20033;-76
2022/05/29 00:44:24;;;;;;;3.42;2.80;;;;;;;;;;2073686;28;20022;-78
2022/05/29 00:45:46;;;;;;;3.20;2.90;;;;;;;;;;2074069;28;20021;-76
2022/05/29 00:47:15;;;;;;;3.38;2.47;;;;;;;;;;2075242;28;20476;-75
2022/05/29 00:48:34;;;;;;;2.50;2.35;;;;;;;;;;2074636;28;20033;-75
2022/05/29 00:49:53;;;;;;;3.25;2.50;;;;;;;;;;2075808;28;20033;-77
2022/05/29 00:51:12;;;;;;;2.58;2.38;;;;;;;;;;2076194;28;20038;-76
2022/05/29 00:52:31;;;;;;;3.00;2.63;;;;;;;;;;2076489;28;20414;-76
2022/05/29 00:53:50;;;;;;;3.25;2.47;;;;;;;;;;2077107;28;20072;-77
2022/05/29 00:55:15;;;;;;;3.08;2.28;;;;;;;;;;2077516;28;20029;-78
2022/05/29 00:56:36;;;;;;;2.47;2.17;;;;;;;;;;2075693;28;20029;-76
2022/05/29 00:58:01;;;;;;;2.65;2.45;;;;;;;;;;2076945;28;20458;-77
2022/05/29 00:59:21;;;;;;;2.40;2.25;;;;;;;;;;2075999;28;20089;-77
2022/05/29 01:00:40;;;;;;;4.45;2.53;;;;;;;;;;2079579;28;20037;-77
2022/05/29 01:02:02;;;;;;;2.95;2.40;;;;;;;;;;2077582;28;20029;-76
2022/05/29 01:03:21;;;;;;;2.55;2.20;;;;;;;;;;2076137;28;20029;-76
2022/05/29 01:04:42;;;;;;;2.13;1.92;;;;;;;;;;2077488;28;20104;-76
2022/05/29 01:06:01;;;;;;;2.30;1.95;;;;;;;;;;2078143;28;20025;-78
2022/05/29 01:07:22;;;;;;;2.20;2.10;;;;;;;;;;2077977;28;20155;-77
2022/05/29 01:08:40;;;;;;;4.78;1.90;;;;;;;;;;2076969;28;20507;-76
2022/05/29 01:10:00;;;;;;;3.88;1.75;;;;;;;;;;2073950;28;20142;-77
2022/05/29 01:11:58;;;;;;;2.00;1.90;;;;;;;;;;2077654;28;20498;-76
2022/05/29 01:13:26;;;;;;;2.20;2.00;;;;;;;;;;2063819;28;20069;-76
2022/05/29 01:14:53;;;;;;;3.45;2.20;;;;;;;;;;2068242;28;20503;-76
2022/05/29 01:16:30;;;;;;;1.58;1.48;;;;;;;;;;2067986;28;20042;-76
2022/05/29 01:17:49;;;;;;;2.13;1.92;;;;;;;;;;2066795;28;20046;-76
2022/05/29 01:19:09;;;;;;;1.92;1.67;;;;;;;;;;2077625;28;20030;-76
2022/05/29 01:20:28;;;;;;;2.00;1.80;;;;;;;;;;2078170;28;20030;-76
2022/05/29 01:22:02;;;;;;;1.80;1.67;;;;;;;;;;2075952;28;20025;-77
2022/05/29 01:23:27;;;;;;;1.95;1.85;;;;;;;;;;2076950;28;20041;-76
2022/05/29 01:24:57;;;;;;;1.77;1.67;;;;;;;;;;2077944;28;20022;-75
2022/05/29 01:26:34;;;;;;;2.17;2.03;;;;;;;;;;2076313;28;21385;-76
2022/05/29 01:27:59;;;;;;;1.85;1.75;;;;;;;;;;2075287;28;20026;-76
2022/05/29 01:29:22;;;;;;;2.05;1.95;;;;;;;;;;2076643;28;20030;-75
2022/05/29 01:30:41;;;;;;;;;;;;;;;;;;2077296;28;20017;-76
2022/05/29 01:32:23;;;;;;;2.20;1.90;;;;;;;;;;2074933;28;19917;-76
2022/05/29 01:34:02;;;;;;;2.30;2.10;;;;;;;;;;2078091;28;20029;-76
2022/05/29 01:35:21;;;;;;;2.10;2.00;;;;;;;;;;2069180;28;20022;-76
2022/05/29 01:36:46;;;;;;;3.42;2.03;;;;;;;;;;2078972;28;20021;-76
2022/05/29 01:38:11;;;;;;;1.60;1.50;;;;;;;;;;2074416;28;20030;-75
2022/05/29 01:39:49;;;;;;;2.40;2.17;;;;;;;;;;2077929;28;20104;-76
2022/05/29 01:41:08;;;;;;;1.92;1.83;;;;;;;;;;2078026;28;20055;-76
2022/05/29 01:42:49;;;;;;;2.00;1.90;;;;;;;;;;2074512;28;20022;-76
2022/05/29 01:44:23;;;;;;;1.98;1.88;;;;;;;;;;2077201;28;20113;-76
2022/05/29 01:45:55;;;;;;;1.95;1.85;;;;;;;;;;2084588;28;20028;-76
2022/05/29 01:47:21;;;;;;;1.75;1.65;;;;;;;;;;2083992;28;20034;-75
2022/05/29 01:48:46;;;;;;;2.13;2.00;;;;;;;;;;2076458;28;20038;-76
2022/05/29 01:50:07;;;;;;;1.75;1.65;;;;;;;;;;2076332;28;20029;-76
2022/05/29 01:51:31;;;;;;;3.15;1.98;;;;;;;;;;2079254;28;20037;-76
2022/05/29 01:52:54;;;;;;;1.90;1.80;;;;;;;;;;2076787;28;20348;-77
2022/05/29 01:54:13;;;;;;;1.98;1.88;;;;;;;;;;2076485;28;20399;-76
2022/05/29 01:55:39;;;;;;;1.83;1.73;;;;;;;;;;2081590;28;20479;-77
2022/05/29 01:57:05;;;;;;;1.85;1.75;;;;;;;;;;2079442;28;20045;-78
2022/05/29 01:58:28;;;;;;;1.70;1.55;;;;;;;;;;2074705;28;20037;-77
2022/05/29 01:59:51;;;;;;;1.60;1.50;;;;;;;;;;2075896;28;20395;-77
2022/05/29 02:01:12;;;;;;;1.92;1.80;;;;;;;;;;2075302;28;20069;-77
2022/05/29 02:02:33;;;;;;;1.77;1.67;;;;;;;;;;2075487;28;20037;-77
2022/05/29 02:03:53;;;;;;;1.80;1.70;;;;;;;;;;2080886;28;20030;-77
2022/05/29 02:05:14;;;;;;;1.60;1.50;;;;;;;;;;2077384;28;20034;-78
2022/05/29 02:07:47;;;;;;;1.80;1.70;;;;;;;;;;2083768;28;20103;-77
2022/05/29 02:08:17;;;;;;;1.50;1.40;;;;;;;;;;2075262;28;20022;-77
2022/05/29 02:09:38;;;;;;;1.65;1.55;;;;;;;;;;2075483;28;20030;-78
2022/05/29 02:11:00;;;;;;;3.08;1.73;;;;;;;;;;2073913;28;20108;-78
2022/05/29 02:12:22;;;;;;;1.90;1.80;;;;;;;;;;2074042;28;20113;-77
2022/05/29 02:14:14;;;;;;;2.20;2.10;;;;;;;;;;2074315;28;20475;-77
2022/05/29 02:15:38;;;;;;;1.90;1.80;;;;;;;;;;2071237;28;20057;-78
2022/05/29 02:17:07;;;;;;;2.28;1.88;;;;;;;;;;2077295;28;20025;-77
2022/05/29 02:18:33;;;;;;;2.05;1.73;;;;;;;;;;2076429;28;20077;-77
2022/05/29 02:20:05;;;;;;;1.75;1.65;;;;;;;;;;2080004;28;20061;-77
2022/05/29 02:21:42;;;;;;;2.83;1.58;;;;;;;;;;2080504;28;20026;-77
2022/05/29 02:23:11;;;;;;;1.75;1.65;;;;;;;;;;2077315;28;20113;-77
2022/05/29 02:24:33;;;;;;;1.85;1.67;;;;;;;;;;2077956;28;20470;-77
2022/05/29 02:25:54;;;;;;;2.20;2.10;;;;;;;;;;2081560;28;20100;-77
2022/05/29 02:27:21;;;;;;;1.85;1.63;;;;;;;;;;2079396;28;20487;-77
2022/05/29 02:28:43;;;;;;;2.03;1.92;;;;;;;;;;2076075;28;20050;-77
2022/05/29 02:30:03;;;;;;;2.00;1.60;;;;;;;;;;2084353;28;20032;-77
2022/05/29 02:31:22;;;;;;;1.95;1.77;;;;;;;;;;2079193;28;20037;-77
2022/05/29 02:32:41;;;;;;;1.60;1.50;;;;;;;;;;2081942;28;20033;-77
2022/05/29 02:34:01;;;;;;;3.67;2.10;;;;;;;;;;2077815;28;20065;-76
2022/05/29 02:35:26;;;;;;;1.58;1.48;;;;;;;;;;2079298;28;20490;-77
2022/05/29 02:37:20;;;;;;;4.45;1.83;;;;;;;;;;2076354;28;20071;-79
2022/05/29 02:38:47;;;;;;;1.73;1.63;;;;;;;;;;2068425;28;20037;-77
2022/05/29 02:40:11;;;;;;;4.05;1.65;;;;;;;;;;2072785;28;20057;-76
2022/05/29 02:41:36;;;;;;;1.17;1.17;;;;;;;;;;2075788;28;20045;-77
2022/05/29 02:43:07;;;;;;;1.92;1.83;;;;;;;;;;2076018;28;20041;-79
2022/05/29 02:44:53;;;;;;;1.60;1.50;;;;;;;;;;2075504;28;20037;-77
2022/05/29 02:46:31;;;;;;;1.77;1.67;;;;;;;;;;2075642;28;20495;-78
2022/05/29 02:48:09;;;;;;;3.30;1.55;;;;;;;;;;2074975;28;20029;-77
2022/05/29 02:49:33;;;;;;;1.67;1.58;;;;;;;;;;2075231;28;20212;-77
2022/05/29 02:51:07;;;;;;;1.88;1.35;;;;;;;;;;2078704;28;20037;-79
2022/05/29 02:52:26;;;;;;;1.30;1.30;;;;;;;;;;2074994;28;20407;-77
2022/05/29 02:53:45;;;;;;;1.60;1.50;;;;;;;;;;2078576;28;20064;-78
2022/05/29 02:55:05;;;;;;;1.20;1.20;;;;;;;;;;2077155;28;20029;-77
2022/05/29 02:56:23;;;;;;;1.48;1.38;;;;;;;;;;2074923;28;20030;-77
2022/05/29 02:57:42;;;;;;;1.60;1.40;;;;;;;;;;2075529;28;20038;-78
2022/05/29 02:59:02;;;;;;;1.30;1.20;;;;;;;;;;2073416;28;20026;-78
2022/05/29 03:00:21;;;;;;;1.25;1.25;;;;;;;;;;2076819;28;20022;-78
2022/05/29 03:01:52;;;;;;;1.20;1.20;;;;;;;;;;2075616;28;20069;-78
2022/05/29 03:03:26;;;;;;;1.20;1.17;;;;;;;;;;2075935;28;20033;-78
2022/05/29 03:04:48;;;;;;;1.40;1.30;;;;;;;;;;2076166;28;20034;-78
2022/05/29 03:06:26;;;;;;;2.00;1.58;;;;;;;;;;2075298;28;20029;-78
2022/05/29 03:07:51;;;;;;;1.48;1.38;;;;;;;;;;2075073;28;20029;-77
2022/05/29 03:09:18;;;;;;;1.50;1.35;;;;;;;;;;2076227;28;20037;-77
2022/05/29 03:10:58;;;;;;;1.10;1.10;;;;;;;;;;2076333;28;20033;-77
2022/05/29 03:12:23;;;;;;;2.85;1.30;;;;;;;;;;2075269;28;20029;-78
2022/05/29 03:13:58;;;;;;;1.30;1.30;;;;;;;;;;2078263;28;20026;-77
2022/05/29 03:15:35;;;;;;;1.98;1.30;;;;;;;;;;2084445;28;20033;-79
2022/05/29 03:16:54;;;;;;;5.18;1.20;;;;;;;;;;2076259;28;20108;-77
2022/05/29 03:18:32;;;;;;;4.53;1.50;;;;;;;;;;2079681;28;20124;-76
2022/05/29 03:19:53;;;;;;;1.50;1.40;;;;;;;;;;2077009;28;20025;-78
2022/05/29 03:21:12;;;;;;;1.40;1.30;;;;;;;;;;2075638;28;20026;-77
2022/05/29 03:22:53;;;;;;;1.38;1.27;;;;;;;;;;2076706;28;20491;-77
2022/05/29 03:24:12;;;;;;;2.75;1.17;;;;;;;;;;2077691;28;20048;-76
2022/05/29 03:25:34;;;;;;;0.88;0.88;;;;;;;;;;2076920;28;20058;-76
2022/05/29 03:27:06;;;;;;;1.67;1.00;;;;;;;;;;2076308;28;20503;-76
2022/05/29 03:28:30;;;;;;;1.40;1.30;;;;;;;;;;2077321;28;20022;-77
2022/05/29 03:29:54;;;;;;;1.15;1.15;;;;;;;;;;2077170;28;20033;-77
2022/05/29 03:31:16;;;;;;;1.48;1.38;;;;;;;;;;2075795;28;20022;-77
2022/05/29 03:32:35;;;;;;;1.55;1.25;;;;;;;;;;2076983;28;20033;-76
2022/05/29 03:33:55;;;;;;;1.67;1.58;;;;;;;;;;2075878;28;20479;-77
2022/05/29 03:35:19;;;;;;;1.92;1.35;;;;;;;;;;2075443;28;20037;-76
2022/05/29 03:36:43;;;;;;;4.30;1.50;;;;;;;;;;2076587;28;20148;-77
2022/05/29 03:38:04;;;;;;;4.15;1.30;;;;;;;;;;2076824;28;20038;-79
2022/05/29 03:39:23;;;;;;;1.63;1.52;;;;;;;;;;2074944;28;20081;-77
2022/05/29 03:40:42;;;;;;;1.50;1.40;;;;;;;;;;2076854;28;20022;-78
2022/05/29 03:42:01;;;;;;;1.50;1.42;;;;;;;;;;2077246;28;20029;-77
2022/05/29 03:43:20;;;;;;;3.70;1.52;;;;;;;;;;2084307;28;20029;-77
2022/05/29 03:44:39;;;;;;;1.60;1.50;;;;;;;;;;2079826;28;20034;-77
2022/05/29 03:45:57;;;;;;;1.60;1.50;;;;;;;;;;2078638;28;20506;-77
2022/05/29 03:47:16;;;;;;;1.48;1.38;;;;;;;;;;2077748;28;20487;-77
2022/05/29 03:48:36;;;;;;;2.35;1.48;;;;;;;;;;2079614;28;20029;-76
2022/05/29 03:49:54;;;;;;;2.78;1.35;;;;;;;;;;2072446;28;20077;-77
2022/05/29 03:51:13;;;;;;;0.82;0.82;;;;;;;;;;2076078;28;20034;-77
2022/05/29 03:52:33;;;;;;;1.92;1.83;;;;;;;;;;2077122;28;20033;-76
2022/05/29 03:53:52;;;;;;;2.05;1.40;;;;;;;;;;2077977;28;20534;-77
2022/05/29 03:55:12;;;;;;;1.30;1.30;;;;;;;;;;2075040;28;20490;-76
2022/05/29 03:56:31;;;;;;;1.58;1.27;;;;;;;;;;2076282;28;20071;-76
2022/05/29 03:57:50;;;;;;;2.45;1.60;;;;;;;;;;2076073;28;20025;-75
2022/05/29 03:59:10;;;;;;;1.52;1.33;;;;;;;;;;2078276;28;20026;-76
2022/05/29 04:00:28;;;;;;;1.45;1.35;;;;;;;;;;2074246;28;20041;-76
2022/05/29 04:01:47;;;;;;;2.05;1.52;;;;;;;;;;2077027;28;20038;-76
2022/05/29 04:03:06;;;;;;;2.13;1.92;;;;;;;;;;2079312;28;20033;-76
2022/05/29 04:04:25;;;;;;;1.75;1.40;;;;;;;;;;2079412;28;20057;-76
2022/05/29 04:05:44;;;;;;;1.65;1.55;;;;;;;;;;2075388;28;20041;-77
2022/05/29 04:07:03;;;;;;;1.50;1.40;;;;;;;;;;2076149;28;20613;-77
2022/05/29 04:13:17;;;;;;;3.10;1.58;;;;;;;;;;2076920;28;20018;-79
2022/05/29 04:14:37;;;;;;;1.40;1.30;;;;;;;;;;2075686;28;20030;-77
2022/05/29 04:15:56;;;;;;;1.15;1.13;;;;;;;;;;2072604;28;20029;-77
2022/05/29 04:17:17;;;;;;;1.67;1.58;;;;;;;;;;2078940;28;20061;-77
2022/05/29 04:18:37;;;;;;;1.40;1.30;;;;;;;;;;2082240;28;20511;-77
2022/05/29 04:19:56;;;;;;;1.60;1.50;;;;;;;;;;2082825;28;20025;-77
2022/05/29 04:21:15;;;;;;;1.55;1.20;;;;;;;;;;2075741;28;20567;-76
2022/05/29 04:22:33;;;;;;;1.10;1.10;;;;;;;;;;2074702;28;20038;-77
2022/05/29 04:23:52;;;;;;;2.35;1.10;;;;;;;;;;2070959;28;20018;-77
2022/05/29 04:25:11;;;;;;;1.98;1.50;;;;;;;;;;2074385;28;20058;-77
2022/05/29 04:26:30;;;;;;;1.23;1.23;;;;;;;;;;2076613;28;20026;-77
2022/05/29 04:27:49;;;;;;;1.30;1.20;;;;;;;;;;2077050;28;20485;-77
2022/05/29 04:29:08;;;;;;;1.20;1.20;;;;;;;;;;2081274;28;20021;-76
2022/05/29 04:30:27;;;;;;;1.30;1.20;;;;;;;;;;2077934;28;20030;-77
2022/05/29 04:33:24;;;;;;;1.95;1.17;;;;;;;;;;2075829;28;20477;-78
2022/05/29 04:34:43;;;;;;;1.35;1.25;;;;;;;;;;2077122;28;20072;-76
2022/05/29 04:36:02;;;;;;;2.58;1.20;;;;;;;;;;2075988;28;20026;-78
2022/05/29 04:37:22;;;;;;;1.13;1.13;;;;;;;;;;2076314;28;20562;-78
2022/05/29 04:38:41;;;;;;;1.13;1.13;;;;;;;;;;2078906;28;20037;-77
2022/05/29 04:39:59;;;;;;;1.42;1.33;;;;;;;;;;2079356;28;20073;-79
2022/05/29 04:41:25;;;;;;;1.30;1.20;;;;;;;;;;2074766;28;20484;-78
2022/05/29 04:42:43;;;;;;;1.35;1.20;;;;;;;;;;2075659;28;20117;-78
2022/05/29 04:44:02;;;;;;;2.30;1.38;;;;;;;;;;2073844;28;20029;-78
2022/05/29 04:45:21;;;;;;;1.40;1.30;;;;;;;;;;2075727;28;20491;-78
2022/05/29 04:46:40;;;;;;;2.13;1.25;;;;;;;;;;2078496;28;20116;-77
2022/05/29 04:47:59;;;;;;;1.48;1.38;;;;;;;;;;2072950;28;20171;-80
2022/05/29 04:49:18;;;;;;;1.35;1.27;;;;;;;;;;2073693;28;20057;-78
2022/05/29 04:50:37;;;;;;;1.15;1.08;;;;;;;;;;2079868;28;20514;-79
2022/05/29 04:51:56;;;;;;;1.85;1.30;;;;;;;;;;2075526;28;20120;-79
2022/05/29 04:53:15;;;;;;;1.48;1.38;;;;;;;;;;2073376;28;20061;-78
2022/05/29 04:54:34;;;;;;;0.90;0.90;;;;;;;;;;2076151;28;20033;-77
2022/05/29 04:55:54;;;;;;;1.00;1.00;;;;;;;;;;2074672;28;20025;-79
2022/05/29 04:57:14;;;;;;;1.02;1.02;;;;;;;;;;2075880;28;20033;-79
2022/05/29 04:58:32;;;;;;;2.10;1.02;;;;;;;;;;2075789;28;20105;-78
2022/05/29 04:59:55;;;;;;;4.72;0.90;;;;;;;;;;2074417;28;20025;-78
2022/05/29 05:01:14;;;;;;;2.40;0.88;;;;;;;;;;2074969;28;20025;-79
2022/05/29 05:02:33;;;;;;;1.35;1.00;;;;;;;;;;2076027;28;20037;-79
2022/05/29 05:03:52;;;;;;;2.47;1.27;;;;;;;;;;2081321;28;20100;-78
2022/05/29 05:05:11;;;;;;;0.98;0.98;;;;;;;;;;2076103;28;20038;-78
2022/05/29 05:06:31;;;;;;;1.40;0.90;;;;;;;;;;2074025;28;20033;-78
2022/05/29 05:07:49;;;;;;;4.28;1.42;;;;;;;;;;2075093;28;20034;-79
2022/05/29 05:09:09;;;;;;;1.13;1.02;;;;;;;;;;2076195;28;20486;-78
2022/05/29 05:10:27;;;;;;;1.75;1.65;;;;;;;;;;2083334;28;20033;-77
2022/05/29 05:11:46;;;;;;;1.45;0.85;;;;;;;;;;2079132;28;20053;-80
2022/05/29 05:13:05;;;;;;;0.80;0.80;;;;;;;;;;2083098;28;20044;-79
2022/05/29 05:14:25;;;;;;;0.93;0.90;;;;;;;;;;2084539;28;20017;-78
2022/05/29 05:15:44;;;;;;;0.85;0.80;;;;;;;;;;2076269;28;20017;-78
2022/05/29 05:17:03;;;;;;;0.68;0.68;;;;;;;;;;2074254;28;20025;-78
2022/05/29 05:18:21;;;;;;;0.77;0.55;;;;;;;;;;2074391;28;20491;-79
2022/05/29 05:19:40;;;;;;;0.82;0.82;;;;;;;;;;2075936;28;20428;-78
2022/05/29 05:21:02;;;;;;;1.38;0.60;;;;;;;;;;2076204;28;20073;-78
2022/05/29 05:22:21;;;;;;;1.30;0.65;;;;;;;;;;2076118;28;20112;-78
2022/05/29 05:23:40;;;;;;;0.50;0.50;;;;;;;;;;2078992;28;20026;-80
2022/05/29 05:25:01;;;;;;;2.47;0.80;;;;;;;;;;2076168;28;20076;-79
2022/05/29 05:26:19;;;;;;;0.70;0.60;;;;;;;;;;2083179;28;20053;-77
2022/05/29 05:27:38;;;;;;;1.48;0.55;;;;;;;;;;2080121;28;20137;-77
2022/05/29 05:28:57;;;;;;;0.63;0.63;;;;;;;;;;2077708;28;20033;-80
2022/05/29 05:30:16;;;;;;;1.08;0.65;;;;;;;;;;2076871;28;20029;-77
2022/05/29 05:31:35;;;;;;;0.40;0.40;;;;;;;;;;2079546;28;20030;-77
2022/05/29 05:32:54;;;;;;;1.10;0.57;;;;;;;;;;2078603;28;20026;-77
2022/05/29 05:34:13;;;;;;;3.20;1.67;;;;;;;;;;2076283;28;21574;-77
2022/05/29 05:35:31;;;;;;;1.30;0.68;;;;;;;;;;2077535;28;20112;-77
2022/05/29 05:36:50;;;;;;;0.77;0.77;;;;;;;;;;2079796;28;20045;-77
2022/05/29 05:38:09;;;;;;;0.90;0.75;;;;;;;;;;2081930;28;20522;-77
2022/05/29 05:39:28;;;;;;;4.28;0.80;;;;;;;;;;2078300;28;20033;-79
2022/05/29 05:40:47;;;;;;;0.43;0.43;;;;;;;;;;2077130;28;20018;-78
2022/05/29 05:42:06;;;;;;;2.42;0.70;;;;;;;;;;2077550;28;20038;-78
2022/05/29 05:43:25;;;;;;;0.60;0.60;;;;;;;;;;2085282;28;20053;-79
2022/05/29 05:44:44;;;;;;;0.52;0.52;;;;;;;;;;2080547;28;20383;-78
2022/05/29 05:46:06;;;;;;;1.15;0.60;;;;;;;;;;2084321;28;20029;-79
2022/05/29 05:47:25;;;;;;;1.15;0.80;;;;;;;;;;2077721;28;20030;-78
2022/05/29 05:48:44;;;;;;;1.10;0.40;;;;;;;;;;2077548;28;20033;-78
2022/05/29 05:50:04;;;;;;;2.22;0.70;;;;;;;;;;2076961;28;20033;-78
2022/05/29 05:51:23;;;;;;;0.95;0.80;;;;;;;;;;2077147;28;20059;-77
2022/05/29 05:52:42;;;;;;;2.25;0.60;;;;;;;;;;2076074;28;20037;-77
2022/05/29 05:54:01;;;;;;;0.70;0.45;;;;;;;;;;2077460;28;20475;-78
2022/05/29 05:55:20;;;;;;;0.70;0.70;;;;;;;;;;2077544;28;20078;-78
2022/05/29 05:56:43;;;;;;;1.00;0.60;;;;;;;;;;2077623;28;20033;-78
2022/05/29 05:58:03;;;;;;;0.95;0.63;;;;;;;;;;2078903;28;20034;-78
2022/05/29 05:59:21;;;;;;;2.22;2.03;;;;;;;;;;2077592;28;20045;-78
2022/05/29 06:00:43;;;;;;;0.65;0.50;;;;;;;;;;2076782;28;20034;-78
2022/05/29 06:02:02;;;;;;;0.95;0.60;;;;;;;;;;2082873;28;20041;-79
2022/05/29 06:03:21;;;;;;;0.50;0.50;;;;;;;;;;2080458;28;20678;-78
2022/05/29 06:04:41;;;;;;;0.50;0.50;;;;;;;;;;2078708;28;20037;-79
2022/05/29 06:06:00;;;;;;;1.70;0.70;;;;;;;;;;2078512;28;20025;-78
2022/05/29 06:07:19;;;;;;;0.70;0.60;;;;;;;;;;2074055;28;20042;-78
2022/05/29 06:08:38;;;;;;;1.23;0.50;;;;;;;;;;2076966;28;20479;-78
2022/05/29 06:09:57;;;;;;;1.00;0.90;;;;;;;;;;2076722;28;20034;-79
2022/05/29 06:11:16;;;;;;;1.95;0.80;;;;;;;;;;2077087;28;20398;-78
2022/05/29 06:12:36;;;;;;;1.85;0.90;;;;;;;;;;2079157;28;20489;-78
2022/05/29 06:13:55;;;;;;;0.70;0.70;;;;;;;;;;2076993;28;20034;-78
2022/05/29 06:15:14;;;;;;;1.60;0.75;;;;;;;;;;2076209;28;20026;-79
2022/05/29 06:16:34;;;;;;;0.68;0.57;;;;;;;;;;2075794;28;20033;-79
2022/05/29 06:17:53;;;;;;;1.10;0.70;;;;;;;;;;2080315;28;20041;-78
2022/05/29 06:19:12;;;;;;;1.45;1.05;;;;;;;;;;2079621;28;20419;-80
2022/05/29 06:20:31;;;;;;;2.15;1.00;;;;;;;;;;2077189;28;20045;-80
2022/05/29 06:21:50;;;;;;;0.95;0.80;;;;;;;;;;2077206;28;20046;-81
2022/05/29 06:23:09;;;;;;;1.70;0.82;;;;;;;;;;2075496;28;20057;-80
2022/05/29 06:24:28;;;;;;;1.20;1.10;;;;;;;;;;2075826;28;20037;-80
2022/05/29 06:25:46;;;;;;;0.93;0.88;;;;;;;;;;2076104;28;20029;-80
2022/05/29 06:27:05;;;;;;;1.90;1.80;;;;;;;;;;2081479;28;20037;-79
2022/05/29 06:28:24;;;;;;;2.00;1.02;;;;;;;;;;2079693;28;20029;-80
2022/05/29 06:29:43;;;;;;;1.10;1.00;;;;;;;;;;2078014;28;20491;-80
2022/05/29 06:31:03;;;;;;;1.02;1.00;;;;;;;;;;2082777;28;20029;-80
2022/05/29 06:32:22;;;;;;;1.30;1.20;;;;;;;;;;2079418;28;20026;-82
2022/05/29 06:33:41;;;;;;;2.10;1.10;;;;;;;;;;2076271;28;20045;-81
2022/05/29 06:35:00;;;;;;;2.05;0.85;;;;;;;;;;2077627;28;20018;-80
2022/05/29 06:36:23;;;;;;;1.95;0.90;;;;;;;;;;2076011;28;20033;-80
2022/05/29 06:37:42;;;;;;;3.13;1.10;;;;;;;;;;2074822;28;20049;-80
2022/05/29 06:39:01;;;;;;;1.92;0.98;;;;;;;;;;2076096;28;20042;-81
2022/05/29 06:40:20;;;;;;;1.10;1.10;;;;;;;;;;2076019;28;20053;-81
2022/05/29 06:41:40;;;;;;;2.00;1.05;;;;;;;;;;2077458;28;20030;-81
2022/05/29 06:43:01;;;;;;;3.40;0.98;;;;;;;;;;2077408;28;20026;-80
2022/05/29 06:44:20;;;;;;;1.85;0.90;;;;;;;;;;2077109;28;20748;-80
2022/05/29 06:45:39;;;;;;;1.77;0.80;;;;;;;;;;2076539;28;20038;-81
2022/05/29 06:47:03;;;;;;;0.70;0.70;;;;;;;;;;2080731;28;20526;-82
2022/05/29 06:48:22;;;;;;;2.15;0.70;;;;;;;;;;2077201;28;20438;-80
2022/05/29 06:49:41;;;;;;;7.30;5.78;;;;;;;;;;2086210;28;20033;-81
2022/05/29 06:51:04;;;;;;;1.20;1.20;;;;;;;;;;2079019;28;20033;-79
2022/05/29 06:52:23;;;;;;;2.03;1.00;;;;;;;;;;2077825;28;20043;-81
2022/05/29 06:53:42;;;;;;;1.40;0.80;;;;;;;;;;2078068;28;20503;-82
2022/05/29 06:55:02;;;;;;;3.50;0.95;;;;;;;;;;2078653;28;20285;-88
2022/05/29 06:56:21;;;;;;;0.63;0.63;;;;;;;;;;2075408;28;20033;-83
2022/05/29 06:57:41;;;;;;;1.20;1.00;;;;;;;;;;2075849;28;20495;-84
2022/05/29 06:59:01;;;;;;;0.90;0.90;;;;;;;;;;2077241;28;20033;-82
2022/05/29 07:06:59;;;;;;;2.85;0.70;;;;;;;;;;2076100;28;20029;-81
2022/05/29 07:08:19;;;;;;;1.98;0.93;;;;;;;;;;2083776;28;20076;-81
2022/05/29 07:09:41;;;;;;;0.90;0.80;;;;;;;;;;2080186;28;20030;-80
2022/05/29 07:11:08;;;;;;;1.35;0.77;;;;;;;;;;2076367;28;20539;-80
2022/05/29 07:12:31;;;;;;;1.27;0.95;;;;;;;;;;2077278;28;20121;-81
2022/05/29 07:13:50;;;;;;;3.15;0.90;;;;;;;;;;2076753;28;20029;-80
2022/05/29 07:15:09;;;;;;;0.60;0.60;;;;;;;;;;2074682;28;20060;-83
2022/05/29 07:16:28;;;;;;;1.50;0.80;;;;;;;;;;2076582;28;20038;-83
2022/05/29 07:17:47;;;;;;;1.77;0.80;;;;;;;;;;2076869;28;20033;-84
2022/05/29 07:19:07;;;;;;;2.08;0.80;;;;;;;;;;2077271;28;20041;-81
2022/05/29 07:20:26;;;;;;;2.47;0.50;;;;;;;;;;2077813;28;20400;-81
2022/05/29 07:21:46;;;;;;;3.05;1.02;;;;;;;;;;2079814;28;20495;-82
2022/05/29 07:23:05;;;;;;;1.58;0.80;;;;;;;;;;2073487;28;20507;-80
2022/05/29 07:24:25;;;;;;;1.00;0.93;;;;;;;;;;2077512;28;20041;-81
2022/05/29 07:25:44;;;;;;;0.98;0.88;;;;;;;;;;2076167;28;20022;-81
2022/05/29 07:27:03;;;;;;;1.63;0.90;;;;;;;;;;2079357;28;20453;-81
2022/05/29 07:28:22;;;;;;;2.25;0.77;;;;;;;;;;2075480;28;20495;-77
2022/05/29 07:29:42;;;;;;;1.60;0.65;;;;;;;;;;2074990;28;20042;-77
2022/05/29 07:31:01;;;;;;;0.90;0.77;;;;;;;;;;2076781;28;20035;-78
2022/05/29 07:32:21;;;;;;;1.70;0.80;;;;;;;;;;2076060;28;20033;-82
2022/05/29 07:33:40;;;;;;;0.90;0.80;;;;;;;;;;2076749;28;20128;-80
2022/05/29 07:34:59;;;;;;;1.20;0.95;;;;;;;;;;2074946;28;20030;-82
2022/05/29 07:36:19;;;;;;;1.65;0.68;;;;;;;;;;2076628;28;20029;-81
2022/05/29 07:37:41;;;;;;;0.70;0.70;;;;;;;;;;2076754;28;20492;-82
2022/05/29 07:39:00;;;;;;;2.55;1.27;;;;;;;;;;2086155;28;20025;-80
2022/05/29 07:40:19;;;;;;;4.85;3.97;;;;;;;;;;2077059;28;20029;-81
2022/05/29 07:43:19;;;;;;;1.05;1.00;;;;;;;;;;2074709;28;20573;-80
2022/05/29 07:44:38;;;;;;;1.63;1.00;;;;;;;;;;2076375;28;20042;-80
2022/05/29 07:45:58;;;;;;;1.83;0.90;;;;;;;;;;2074782;28;20577;-76
2022/05/29 07:47:17;;;;;;;0.80;0.80;;;;;;;;;;2084335;28;21136;-75
2022/05/29 07:48:37;;;;;;;2.05;0.85;;;;;;;;;;2076597;28;20038;-76
2022/05/29 07:49:56;;;;;;;0.68;0.68;;;;;;;;;;2076354;28;20084;-75
2022/05/29 07:51:15;;;;;;;2.08;1.13;;;;;;;;;;2072900;28;20511;-78
2022/05/29 07:52:34;;;;;;;0.70;0.70;;;;;;;;;;2079076;28;20041;-77
2022/05/29 07:53:53;;;;;;;1.02;1.02;;;;;;;;;;2076813;28;20423;-79
2022/05/29 07:55:13;;;;;;;2.45;0.80;;;;;;;;;;2077444;28;20116;-77
2022/05/29 07:56:32;;;;;;;0.95;0.93;;;;;;;;;;2075985;28;20038;-80
2022/05/29 07:57:51;;;;;;;4.40;1.20;;;;;;;;;;2072645;28;20033;-79
2022/05/29 07:59:10;;;;;;;3.50;0.80;;;;;;;;;;2067498;28;20431;-79
2022/05/29 08:00:29;;;;;;;0.82;0.82;;;;;;;;;;2073401;28;20026;-79
2022/05/29 08:01:49;;;;;;;0.70;0.70;;;;;;;;;;2082340;28;20026;-78
2022/05/29 08:03:07;;;;;;;3.25;0.98;;;;;;;;;;2080456;28;20081;-79
2022/05/29 08:04:27;;;;;;;1.05;0.85;;;;;;;;;;2073019;28;20029;-78
2022/05/29 08:05:46;;;;;;;0.85;0.85;;;;;;;;;;2074883;28;20515;-78
2022/05/29 08:07:05;;;;;;;1.00;1.00;;;;;;;;;;2076279;28;20452;-79
2022/05/29 08:08:25;;;;;;;1.08;0.93;;;;;;;;;;2075308;28;20046;-79
2022/05/29 08:09:44;;;;;;;1.08;1.08;;;;;;;;;;2076282;28;20033;-78
2022/05/29 08:11:03;;;;;;;1.17;0.90;;;;;;;;;;2076465;28;20432;-79
2022/05/29 08:12:22;;;;;;;0.90;0.90;;;;;;;;;;2076960;28;20116;-79
2022/05/29 08:13:41;;;;;;;0.93;0.93;;;;;;;;;;2076323;28;20038;-78
2022/05/29 08:15:03;;;;;;;1.65;1.00;;;;;;;;;;2076806;28;20069;-79
2022/05/29 08:16:22;;;;;;;2.05;1.08;;;;;;;;;;2079921;28;20029;-78
2022/05/29 08:17:41;;;;;;;0.90;0.90;;;;;;;;;;2076674;28;20042;-78
2022/05/29 08:19:00;;;;;;;0.90;0.90;;;;;;;;;;2076307;28;20058;-78
2022/05/29 08:20:19;;;;;;;0.65;0.65;;;;;;;;;;2084987;28;20030;-78
2022/05/29 08:21:38;;;;;;;0.93;0.82;;;;;;;;;;2080169;28;20630;-78
2022/05/29 08:22:57;;;;;;;0.90;0.70;;;;;;;;;;2082900;28;20033;-79
2022/05/29 08:30:54;;;;;;;1.65;0.77;;;;;;;;;;2077231;28;20129;-79